sensor_id;sensor_type;location;lat;lon;timestamp;P1;durP1;ratioP1;P2;durP2;ratioP2
25279;SDS011;13225;47.804;12.116;2022-09-06T00:02:13;6.68;;;5.35;;
25279;SDS011;13225;47.804;12.116;2022-09-06T00:04:38;7.15;;;5.72;;
25279;SDS011;13225;47.804;12.116;2022-09-06T00:07:04;5.30;;;4.80;;
25279;SDS011;13225;47.804;12.116;2022-09-06T00:09:30;6.07;;;4.70;;
25279;SDS011;13225;47.804;12.116;2022-09-06T00:11:55;5.40;;;4.53;;
25279;SDS011;13225;47.804;12.116;2022-09-06T00:14:21;7.57;;;4.93;;
25279;SDS011;13225;47.804;12.116;2022-09-06T00:16:49;7.05;;;4.90;;
25279;SDS011;13225;47.804;12.116;2022-09-06T00:19:14;8.00;;;5.45;;
25279;SDS011;13225;47.804;12.116;2022-09-06T00:21:40;6.20;;;5.40;;
25279;SDS011;13225;47.804;12.116;2022-09-06T00:24:05;8.20;;;5.90;;
25279;SDS011;13225;47.804;12.116;2022-09-06T00:26:31;11.95;;;7.10;;
25279;SDS011;13225;47.804;12.116;2022-09-06T00:28:57;10.57;;;7.10;;
25279;SDS011;13225;47.804;12.116;2022-09-06T00:31:23;10.07;;;6.82;;
25279;SDS011;13225;47.804;12.116;2022-09-06T00:33:50;8.50;;;7.32;;
25279;SDS011;13225;47.804;12.116;2022-09-06T00:36:17;11.10;;;7.93;;
25279;SDS011;13225;47.804;12.116;2022-09-06T00:38:43;12.07;;;8.13;;
25279;SDS011;13225;47.804;12.116;2022-09-06T00:41:09;12.00;;;7.35;;
25279;SDS011;13225;47.804;12.116;2022-09-06T00:43:36;9.07;;;7.43;;
25279;SDS011;13225;47.804;12.116;2022-09-06T00:46:03;8.88;;;7.07;;
25279;SDS011;13225;47.804;12.116;2022-09-06T00:48:30;8.50;;;6.75;;
25279;SDS011;13225;47.804;12.116;2022-09-06T00:50:59;8.57;;;6.43;;
25279;SDS011;13225;47.804;12.116;2022-09-06T00:53:27;7.95;;;6.45;;
25279;SDS011;13225;47.804;12.116;2022-09-06T00:55:56;6.20;;;5.55;;
25279;SDS011;13225;47.804;12.116;2022-09-06T00:58:22;9.50;;;6.97;;
25279;SDS011;13225;47.804;12.116;2022-09-06T01:00:49;8.23;;;6.38;;
25279;SDS011;13225;47.804;12.116;2022-09-06T01:03:15;10.00;;;6.90;;
25279;SDS011;13225;47.804;12.116;2022-09-06T01:08:51;9.25;;;6.75;;
25279;SDS011;13225;47.804;12.116;2022-09-06T01:16:44;8.20;;;6.53;;
25279;SDS011;13225;47.804;12.116;2022-09-06T01:22:33;7.93;;;6.20;;
25279;SDS011;13225;47.804;12.116;2022-09-06T01:28:09;7.55;;;6.22;;
25279;SDS011;13225;47.804;12.116;2022-09-06T01:30:45;8.90;;;5.80;;
25279;SDS011;13225;47.804;12.116;2022-09-06T01:33:25;13.95;;;6.38;;
25279;SDS011;13225;47.804;12.116;2022-09-06T01:36:03;8.65;;;6.00;;
25279;SDS011;13225;47.804;12.116;2022-09-06T01:38:33;6.55;;;5.38;;
25279;SDS011;13225;47.804;12.116;2022-09-06T01:40:59;6.45;;;4.90;;
25279;SDS011;13225;47.804;12.116;2022-09-06T01:43:30;7.40;;;4.93;;
25279;SDS011;13225;47.804;12.116;2022-09-06T01:48:47;5.93;;;5.00;;
25279;SDS011;13225;47.804;12.116;2022-09-06T01:51:46;5.95;;;5.05;;
25279;SDS011;13225;47.804;12.116;2022-09-06T01:54:23;5.57;;;4.97;;
25279;SDS011;13225;47.804;12.116;2022-09-06T02:00:07;10.70;;;5.90;;
25279;SDS011;13225;47.804;12.116;2022-09-06T02:02:40;8.85;;;5.50;;
25279;SDS011;13225;47.804;12.116;2022-09-06T02:07:57;7.72;;;6.00;;
25279;SDS011;13225;47.804;12.116;2022-09-06T02:10:33;8.00;;;6.13;;
25279;SDS011;13225;47.804;12.116;2022-09-06T02:13:09;6.78;;;5.85;;
25279;SDS011;13225;47.804;12.116;2022-09-06T02:15:42;7.78;;;5.80;;
25279;SDS011;13225;47.804;12.116;2022-09-06T02:18:13;10.32;;;6.50;;
25279;SDS011;13225;47.804;12.116;2022-09-06T02:20:48;6.90;;;5.90;;
25279;SDS011;13225;47.804;12.116;2022-09-06T02:23:16;6.90;;;6.00;;
25279;SDS011;13225;47.804;12.116;2022-09-06T02:25:56;7.13;;;6.10;;
25279;SDS011;13225;47.804;12.116;2022-09-06T02:28:27;7.82;;;6.50;;
25279;SDS011;13225;47.804;12.116;2022-09-06T02:30:54;7.40;;;5.57;;
25279;SDS011;13225;47.804;12.116;2022-09-06T02:33:25;7.57;;;5.93;;
25279;SDS011;13225;47.804;12.116;2022-09-06T02:35:54;11.15;;;5.88;;
25279;SDS011;13225;47.804;12.116;2022-09-06T02:38:21;10.98;;;6.20;;
25279;SDS011;13225;47.804;12.116;2022-09-06T02:40:48;7.55;;;6.57;;
25279;SDS011;13225;47.804;12.116;2022-09-06T02:43:17;7.53;;;6.30;;
25279;SDS011;13225;47.804;12.116;2022-09-06T02:45:43;7.95;;;6.05;;
25279;SDS011;13225;47.804;12.116;2022-09-06T02:48:08;8.57;;;6.10;;
25279;SDS011;13225;47.804;12.116;2022-09-06T02:50:34;8.23;;;5.78;;
25279;SDS011;13225;47.804;12.116;2022-09-06T02:53:04;8.13;;;5.78;;
25279;SDS011;13225;47.804;12.116;2022-09-06T02:55:34;10.02;;;6.10;;
25279;SDS011;13225;47.804;12.116;2022-09-06T02:58:01;10.48;;;6.38;;
25279;SDS011;13225;47.804;12.116;2022-09-06T03:00:27;8.40;;;6.50;;
25279;SDS011;13225;47.804;12.116;2022-09-06T03:02:54;8.93;;;6.45;;
25279;SDS011;13225;47.804;12.116;2022-09-06T03:05:20;9.20;;;7.10;;
25279;SDS011;13225;47.804;12.116;2022-09-06T03:07:47;10.05;;;7.18;;
25279;SDS011;13225;47.804;12.116;2022-09-06T03:10:13;8.57;;;6.78;;
25279;SDS011;13225;47.804;12.116;2022-09-06T03:12:43;8.75;;;7.03;;
25279;SDS011;13225;47.804;12.116;2022-09-06T03:15:09;8.65;;;6.63;;
25279;SDS011;13225;47.804;12.116;2022-09-06T03:17:35;9.68;;;6.45;;
25279;SDS011;13225;47.804;12.116;2022-09-06T03:20:01;9.70;;;6.65;;
25279;SDS011;13225;47.804;12.116;2022-09-06T03:22:27;7.40;;;6.55;;
25279;SDS011;13225;47.804;12.116;2022-09-06T03:24:53;8.27;;;6.95;;
25279;SDS011;13225;47.804;12.116;2022-09-06T03:27:18;8.18;;;6.65;;
25279;SDS011;13225;47.804;12.116;2022-09-06T03:29:44;9.68;;;6.68;;
25279;SDS011;13225;47.804;12.116;2022-09-06T03:32:10;9.65;;;6.78;;
25279;SDS011;13225;47.804;12.116;2022-09-06T03:34:35;13.25;;;7.03;;
25279;SDS011;13225;47.804;12.116;2022-09-06T03:37:01;9.00;;;7.18;;
25279;SDS011;13225;47.804;12.116;2022-09-06T03:39:27;10.02;;;7.55;;
25279;SDS011;13225;47.804;12.116;2022-09-06T03:41:52;8.70;;;6.75;;
25279;SDS011;13225;47.804;12.116;2022-09-06T03:44:18;10.05;;;7.35;;
25279;SDS011;13225;47.804;12.116;2022-09-06T03:46:44;9.82;;;7.97;;
25279;SDS011;13225;47.804;12.116;2022-09-06T03:49:10;10.60;;;7.35;;
25279;SDS011;13225;47.804;12.116;2022-09-06T03:51:35;9.57;;;7.63;;
25279;SDS011;13225;47.804;12.116;2022-09-06T03:54:01;9.35;;;7.53;;
25279;SDS011;13225;47.804;12.116;2022-09-06T03:56:27;11.43;;;7.68;;
25279;SDS011;13225;47.804;12.116;2022-09-06T03:58:52;11.57;;;7.72;;
25279;SDS011;13225;47.804;12.116;2022-09-06T04:01:18;9.70;;;7.95;;
25279;SDS011;13225;47.804;12.116;2022-09-06T04:03:44;10.00;;;8.30;;
25279;SDS011;13225;47.804;12.116;2022-09-06T04:06:10;9.13;;;7.50;;
25279;SDS011;13225;47.804;12.116;2022-09-06T04:08:36;10.27;;;7.50;;
25279;SDS011;13225;47.804;12.116;2022-09-06T04:11:03;8.98;;;7.85;;
25279;SDS011;13225;47.804;12.116;2022-09-06T04:13:29;13.63;;;8.07;;
25279;SDS011;13225;47.804;12.116;2022-09-06T04:15:57;11.32;;;8.23;;
25279;SDS011;13225;47.804;12.116;2022-09-06T04:18:23;13.43;;;8.52;;
25279;SDS011;13225;47.804;12.116;2022-09-06T04:20:52;13.45;;;7.60;;
25279;SDS011;13225;47.804;12.116;2022-09-06T04:23:20;11.20;;;7.25;;
25279;SDS011;13225;47.804;12.116;2022-09-06T04:25:47;8.30;;;7.50;;
25279;SDS011;13225;47.804;12.116;2022-09-06T04:28:14;9.95;;;6.95;;
25279;SDS011;13225;47.804;12.116;2022-09-06T04:30:42;10.45;;;6.88;;
25279;SDS011;13225;47.804;12.116;2022-09-06T04:33:09;10.20;;;6.80;;
25279;SDS011;13225;47.804;12.116;2022-09-06T04:35:35;8.48;;;7.13;;
25279;SDS011;13225;47.804;12.116;2022-09-06T04:38:01;10.30;;;8.30;;
25279;SDS011;13225;47.804;12.116;2022-09-06T04:40:27;10.70;;;8.07;;
25279;SDS011;13225;47.804;12.116;2022-09-06T04:42:53;12.05;;;7.35;;
25279;SDS011;13225;47.804;12.116;2022-09-06T04:45:18;10.02;;;7.22;;
25279;SDS011;13225;47.804;12.116;2022-09-06T04:47:44;12.23;;;6.82;;
25279;SDS011;13225;47.804;12.116;2022-09-06T04:50:10;13.55;;;6.72;;
25279;SDS011;13225;47.804;12.116;2022-09-06T04:52:35;12.93;;;6.90;;
25279;SDS011;13225;47.804;12.116;2022-09-06T04:55:01;10.68;;;6.93;;
25279;SDS011;13225;47.804;12.116;2022-09-06T04:57:27;9.52;;;6.53;;
25279;SDS011;13225;47.804;12.116;2022-09-06T04:59:52;12.80;;;6.55;;
25279;SDS011;13225;47.804;12.116;2022-09-06T05:02:18;14.15;;;6.82;;
25279;SDS011;13225;47.804;12.116;2022-09-06T05:04:44;10.85;;;6.55;;
25279;SDS011;13225;47.804;12.116;2022-09-06T05:07:09;9.43;;;6.65;;
25279;SDS011;13225;47.804;12.116;2022-09-06T05:09:35;9.23;;;6.78;;
25279;SDS011;13225;47.804;12.116;2022-09-06T05:12:01;9.25;;;6.18;;
25279;SDS011;13225;47.804;12.116;2022-09-06T05:14:27;11.27;;;6.90;;
25279;SDS011;13225;47.804;12.116;2022-09-06T05:16:53;10.07;;;6.53;;
25279;SDS011;13225;47.804;12.116;2022-09-06T05:19:19;13.07;;;7.20;;
25279;SDS011;13225;47.804;12.116;2022-09-06T05:21:45;14.57;;;7.20;;
25279;SDS011;13225;47.804;12.116;2022-09-06T05:24:11;12.88;;;7.25;;
25279;SDS011;13225;47.804;12.116;2022-09-06T05:26:37;12.15;;;7.35;;
25279;SDS011;13225;47.804;12.116;2022-09-06T05:29:02;13.98;;;7.00;;
25279;SDS011;13225;47.804;12.116;2022-09-06T05:31:29;19.05;;;7.43;;
25279;SDS011;13225;47.804;12.116;2022-09-06T05:33:56;16.88;;;7.38;;
25279;SDS011;13225;47.804;12.116;2022-09-06T05:36:23;17.42;;;7.65;;
25279;SDS011;13225;47.804;12.116;2022-09-06T05:38:50;17.10;;;7.30;;
25279;SDS011;13225;47.804;12.116;2022-09-06T05:41:16;11.50;;;7.25;;
25279;SDS011;13225;47.804;12.116;2022-09-06T05:43:42;7.78;;;6.18;;
25279;SDS011;13225;47.804;12.116;2022-09-06T05:46:08;12.35;;;6.68;;
25279;SDS011;13225;47.804;12.116;2022-09-06T05:48:34;7.57;;;5.72;;
25279;SDS011;13225;47.804;12.116;2022-09-06T05:51:08;8.35;;;5.80;;
25279;SDS011;13225;47.804;12.116;2022-09-06T05:53:39;7.00;;;5.53;;
25279;SDS011;13225;47.804;12.116;2022-09-06T05:56:07;8.10;;;5.35;;
25279;SDS011;13225;47.804;12.116;2022-09-06T05:58:33;7.57;;;5.28;;
25279;SDS011;13225;47.804;12.116;2022-09-06T06:01:32;7.68;;;5.00;;
25279;SDS011;13225;47.804;12.116;2022-09-06T06:03:56;7.75;;;5.85;;
25279;SDS011;13225;47.804;12.116;2022-09-06T06:06:30;8.68;;;5.85;;
25279;SDS011;13225;47.804;12.116;2022-09-06T06:08:57;6.88;;;5.50;;
25279;SDS011;13225;47.804;12.116;2022-09-06T06:11:23;7.72;;;5.10;;
25279;SDS011;13225;47.804;12.116;2022-09-06T06:13:50;6.05;;;5.43;;
25279;SDS011;13225;47.804;12.116;2022-09-06T06:16:19;9.27;;;7.00;;
25279;SDS011;13225;47.804;12.116;2022-09-06T06:18:46;7.28;;;4.72;;
25279;SDS011;13225;47.804;12.116;2022-09-06T06:21:14;15.35;;;6.35;;
25279;SDS011;13225;47.804;12.116;2022-09-06T06:23:43;7.65;;;5.85;;
25279;SDS011;13225;47.804;12.116;2022-09-06T06:26:10;9.98;;;7.28;;
25279;SDS011;13225;47.804;12.116;2022-09-06T06:28:37;7.85;;;4.53;;
25279;SDS011;13225;47.804;12.116;2022-09-06T06:31:06;6.88;;;4.40;;
25279;SDS011;13225;47.804;12.116;2022-09-06T06:33:34;5.10;;;4.20;;
25279;SDS011;13225;47.804;12.116;2022-09-06T06:36:03;6.28;;;4.57;;
25279;SDS011;13225;47.804;12.116;2022-09-06T06:38:39;6.60;;;4.10;;
25279;SDS011;13225;47.804;12.116;2022-09-06T06:41:07;3.90;;;3.53;;
25279;SDS011;13225;47.804;12.116;2022-09-06T06:43:34;4.03;;;3.42;;
25279;SDS011;13225;47.804;12.116;2022-09-06T06:46:20;5.57;;;4.85;;
25279;SDS011;13225;47.804;12.116;2022-09-06T06:48:47;4.03;;;3.33;;
25279;SDS011;13225;47.804;12.116;2022-09-06T06:51:14;4.30;;;3.90;;
25279;SDS011;13225;47.804;12.116;2022-09-06T06:53:42;4.03;;;3.40;;
25279;SDS011;13225;47.804;12.116;2022-09-06T06:56:19;4.30;;;3.80;;
25279;SDS011;13225;47.804;12.116;2022-09-06T06:58:51;5.30;;;3.63;;
25279;SDS011;13225;47.804;12.116;2022-09-06T07:01:19;4.97;;;3.60;;
25279;SDS011;13225;47.804;12.116;2022-09-06T07:03:45;4.75;;;3.70;;
25279;SDS011;13225;47.804;12.116;2022-09-06T07:06:12;4.68;;;3.92;;
25279;SDS011;13225;47.804;12.116;2022-09-06T07:08:38;4.85;;;3.63;;
25279;SDS011;13225;47.804;12.116;2022-09-06T07:11:05;6.97;;;3.58;;
25279;SDS011;13225;47.804;12.116;2022-09-06T07:13:39;5.32;;;3.53;;
25279;SDS011;13225;47.804;12.116;2022-09-06T07:16:14;6.20;;;3.60;;
25279;SDS011;13225;47.804;12.116;2022-09-06T07:18:42;5.45;;;3.70;;
25279;SDS011;13225;47.804;12.116;2022-09-06T07:21:16;7.22;;;3.85;;
25279;SDS011;13225;47.804;12.116;2022-09-06T07:23:43;6.47;;;3.95;;
25279;SDS011;13225;47.804;12.116;2022-09-06T07:26:13;7.22;;;3.88;;
25279;SDS011;13225;47.804;12.116;2022-09-06T07:28:40;6.95;;;4.22;;
25279;SDS011;13225;47.804;12.116;2022-09-06T07:31:06;4.72;;;3.45;;
25279;SDS011;13225;47.804;12.116;2022-09-06T07:33:33;3.83;;;3.53;;
25279;SDS011;13225;47.804;12.116;2022-09-06T07:36:00;4.68;;;4.13;;
25279;SDS011;13225;47.804;12.116;2022-09-06T07:38:29;5.18;;;3.70;;
25279;SDS011;13225;47.804;12.116;2022-09-06T07:40:56;4.43;;;3.58;;
25279;SDS011;13225;47.804;12.116;2022-09-06T07:43:23;4.22;;;3.83;;
25279;SDS011;13225;47.804;12.116;2022-09-06T07:46:09;3.95;;;3.55;;
25279;SDS011;13225;47.804;12.116;2022-09-06T07:48:37;4.88;;;3.83;;
25279;SDS011;13225;47.804;12.116;2022-09-06T07:51:06;3.97;;;3.58;;
25279;SDS011;13225;47.804;12.116;2022-09-06T07:53:43;4.38;;;3.70;;
25279;SDS011;13225;47.804;12.116;2022-09-06T07:56:14;3.70;;;3.40;;
25279;SDS011;13225;47.804;12.116;2022-09-06T07:58:42;4.35;;;3.67;;
25279;SDS011;13225;47.804;12.116;2022-09-06T08:01:18;9.38;;;3.90;;
25279;SDS011;13225;47.804;12.116;2022-09-06T08:03:55;3.90;;;3.53;;
25279;SDS011;13225;47.804;12.116;2022-09-06T08:06:26;3.70;;;3.40;;
25279;SDS011;13225;47.804;12.116;2022-09-06T08:08:53;5.38;;;3.50;;
25279;SDS011;13225;47.804;12.116;2022-09-06T08:11:19;6.72;;;3.65;;
25279;SDS011;13225;47.804;12.116;2022-09-06T08:13:52;5.32;;;3.40;;
25279;SDS011;13225;47.804;12.116;2022-09-06T08:16:20;5.03;;;3.60;;
25279;SDS011;13225;47.804;12.116;2022-09-06T08:18:50;4.05;;;3.35;;
25279;SDS011;13225;47.804;12.116;2022-09-06T08:21:17;5.38;;;3.78;;
25279;SDS011;13225;47.804;12.116;2022-09-06T08:23:45;6.07;;;4.10;;
25279;SDS011;13225;47.804;12.116;2022-09-06T08:26:12;5.80;;;3.78;;
25279;SDS011;13225;47.804;12.116;2022-09-06T08:28:39;6.43;;;4.10;;
25279;SDS011;13225;47.804;12.116;2022-09-06T08:31:05;7.20;;;3.65;;
25279;SDS011;13225;47.804;12.116;2022-09-06T08:33:32;5.90;;;3.95;;
25279;SDS011;13225;47.804;12.116;2022-09-06T08:35:58;4.28;;;3.85;;
25279;SDS011;13225;47.804;12.116;2022-09-06T08:38:25;5.32;;;3.80;;
25279;SDS011;13225;47.804;12.116;2022-09-06T08:40:51;8.05;;;4.35;;
25279;SDS011;13225;47.804;12.116;2022-09-06T08:43:19;4.43;;;4.00;;
25279;SDS011;13225;47.804;12.116;2022-09-06T08:45:47;6.60;;;4.05;;
25279;SDS011;13225;47.804;12.116;2022-09-06T08:48:20;6.50;;;4.10;;
25279;SDS011;13225;47.804;12.116;2022-09-06T08:50:50;5.90;;;4.32;;
25279;SDS011;13225;47.804;12.116;2022-09-06T08:53:42;4.60;;;3.92;;
25279;SDS011;13225;47.804;12.116;2022-09-06T08:58:57;8.23;;;4.40;;
25279;SDS011;13225;47.804;12.116;2022-09-06T09:04:01;5.32;;;4.20;;
25279;SDS011;13225;47.804;12.116;2022-09-06T09:06:30;5.60;;;4.15;;
25279;SDS011;13225;47.804;12.116;2022-09-06T09:08:59;5.75;;;4.07;;
25279;SDS011;13225;47.804;12.116;2022-09-06T09:11:32;5.30;;;3.70;;
25279;SDS011;13225;47.804;12.116;2022-09-06T09:16:53;4.60;;;3.90;;
25279;SDS011;13225;47.804;12.116;2022-09-06T09:19:20;6.70;;;4.13;;
25279;SDS011;13225;47.804;12.116;2022-09-06T09:21:46;6.55;;;3.75;;
25279;SDS011;13225;47.804;12.116;2022-09-06T09:24:12;5.50;;;3.90;;
25279;SDS011;13225;47.804;12.116;2022-09-06T09:29:23;6.47;;;3.90;;
25279;SDS011;13225;47.804;12.116;2022-09-06T09:31:51;3.67;;;3.30;;
25279;SDS011;13225;47.804;12.116;2022-09-06T09:34:28;5.13;;;3.70;;
25279;SDS011;13225;47.804;12.116;2022-09-06T09:39:49;5.10;;;3.63;;
25279;SDS011;13225;47.804;12.116;2022-09-06T09:42:26;4.30;;;3.83;;
25279;SDS011;13225;47.804;12.116;2022-09-06T09:44:55;6.78;;;3.63;;
25279;SDS011;13225;47.804;12.116;2022-09-06T09:47:26;3.90;;;3.60;;
25279;SDS011;13225;47.804;12.116;2022-09-06T09:49:56;3.60;;;3.30;;
25279;SDS011;13225;47.804;12.116;2022-09-06T09:52:24;4.72;;;3.70;;
25279;SDS011;13225;47.804;12.116;2022-09-06T09:55:04;4.88;;;3.72;;
25279;SDS011;13225;47.804;12.116;2022-09-06T09:57:41;5.68;;;3.80;;
25279;SDS011;13225;47.804;12.116;2022-09-06T10:00:09;4.72;;;3.13;;
25279;SDS011;13225;47.804;12.116;2022-09-06T10:02:37;5.72;;;3.15;;
25279;SDS011;13225;47.804;12.116;2022-09-06T10:05:08;3.92;;;3.20;;
25279;SDS011;13225;47.804;12.116;2022-09-06T10:10:14;4.97;;;3.42;;
25279;SDS011;13225;47.804;12.116;2022-09-06T10:13:04;4.80;;;3.15;;
25279;SDS011;13225;47.804;12.116;2022-09-06T10:15:37;4.70;;;3.33;;
25279;SDS011;13225;47.804;12.116;2022-09-06T10:18:04;3.72;;;3.30;;
25279;SDS011;13225;47.804;12.116;2022-09-06T10:20:41;4.53;;;3.10;;
25279;SDS011;13225;47.804;12.116;2022-09-06T10:23:25;3.63;;;3.33;;
25279;SDS011;13225;47.804;12.116;2022-09-06T10:29:15;3.05;;;2.75;;
25279;SDS011;13225;47.804;12.116;2022-09-06T10:37:44;3.65;;;3.35;;
25279;SDS011;13225;47.804;12.116;2022-09-06T10:40:28;3.83;;;3.33;;
25279;SDS011;13225;47.804;12.116;2022-09-06T10:43:01;3.70;;;3.20;;
25279;SDS011;13225;47.804;12.116;2022-09-06T10:45:53;3.63;;;3.30;;
25279;SDS011;13225;47.804;12.116;2022-09-06T10:48:41;5.10;;;3.80;;
25279;SDS011;13225;47.804;12.116;2022-09-06T10:53:55;4.07;;;3.25;;
25279;SDS011;13225;47.804;12.116;2022-09-06T11:01:41;5.30;;;3.15;;
25279;SDS011;13225;47.804;12.116;2022-09-06T11:04:22;3.47;;;3.17;;
25279;SDS011;13225;47.804;12.116;2022-09-06T11:06:54;4.22;;;3.38;;
25279;SDS011;13225;47.804;12.116;2022-09-06T11:09:28;3.63;;;3.00;;
25279;SDS011;13225;47.804;12.116;2022-09-06T11:15:00;4.35;;;3.28;;
25279;SDS011;13225;47.804;12.116;2022-09-06T11:20:04;3.60;;;2.92;;
25279;SDS011;13225;47.804;12.116;2022-09-06T11:28:07;4.13;;;3.30;;
25279;SDS011;13225;47.804;12.116;2022-09-06T11:30:39;3.80;;;3.00;;
25279;SDS011;13225;47.804;12.116;2022-09-06T11:36:15;3.50;;;3.20;;
25279;SDS011;13225;47.804;12.116;2022-09-06T11:38:55;3.60;;;3.05;;
25279;SDS011;13225;47.804;12.116;2022-09-06T11:41:28;5.10;;;3.30;;
25279;SDS011;13225;47.804;12.116;2022-09-06T11:43:56;3.57;;;2.90;;
25279;SDS011;13225;47.804;12.116;2022-09-06T11:49:04;7.25;;;3.00;;
25279;SDS011;13225;47.804;12.116;2022-09-06T11:51:52;4.70;;;3.22;;
25279;SDS011;13225;47.804;12.116;2022-09-06T11:59:33;3.97;;;2.90;;
25279;SDS011;13225;47.804;12.116;2022-09-06T12:07:31;3.75;;;2.80;;
25279;SDS011;13225;47.804;12.116;2022-09-06T12:15:58;6.95;;;4.75;;
25279;SDS011;13225;47.804;12.116;2022-09-06T12:18:51;3.30;;;3.00;;
25279;SDS011;13225;47.804;12.116;2022-09-06T12:23:57;4.32;;;2.80;;
25279;SDS011;13225;47.804;12.116;2022-09-06T12:26:46;4.63;;;2.45;;
25279;SDS011;13225;47.804;12.116;2022-09-06T12:29:24;2.67;;;2.28;;
25279;SDS011;13225;47.804;12.116;2022-09-06T12:31:51;2.80;;;2.60;;
25279;SDS011;13225;47.804;12.116;2022-09-06T12:34:21;2.90;;;2.60;;
25279;SDS011;13225;47.804;12.116;2022-09-06T12:36:53;2.95;;;2.53;;
25279;SDS011;13225;47.804;12.116;2022-09-06T12:39:28;3.20;;;2.33;;
25279;SDS011;13225;47.804;12.116;2022-09-06T12:41:56;2.88;;;2.10;;
25279;SDS011;13225;47.804;12.116;2022-09-06T12:44:30;2.40;;;2.30;;
25279;SDS011;13225;47.804;12.116;2022-09-06T12:47:05;2.20;;;2.00;;
25279;SDS011;13225;47.804;12.116;2022-09-06T12:49:38;2.25;;;2.05;;
25279;SDS011;13225;47.804;12.116;2022-09-06T12:52:13;3.55;;;2.15;;
25279;SDS011;13225;47.804;12.116;2022-09-06T12:54:44;2.30;;;2.10;;
25279;SDS011;13225;47.804;12.116;2022-09-06T12:57:13;2.20;;;2.00;;
25279;SDS011;13225;47.804;12.116;2022-09-06T12:59:45;3.03;;;2.22;;
25279;SDS011;13225;47.804;12.116;2022-09-06T13:02:14;3.53;;;2.30;;
25279;SDS011;13225;47.804;12.116;2022-09-06T13:04:50;2.30;;;2.10;;
25279;SDS011;13225;47.804;12.116;2022-09-06T13:07:20;3.92;;;2.28;;
25279;SDS011;13225;47.804;12.116;2022-09-06T13:09:48;1.95;;;1.75;;
25279;SDS011;13225;47.804;12.116;2022-09-06T13:14:56;2.53;;;1.67;;
25279;SDS011;13225;47.804;12.116;2022-09-06T13:17:28;2.78;;;1.80;;
25279;SDS011;13225;47.804;12.116;2022-09-06T13:19:55;2.55;;;1.83;;
25279;SDS011;13225;47.804;12.116;2022-09-06T13:25:22;3.67;;;1.90;;
25279;SDS011;13225;47.804;12.116;2022-09-06T13:27:50;3.10;;;1.80;;
25279;SDS011;13225;47.804;12.116;2022-09-06T13:33:53;2.67;;;2.00;;
25279;SDS011;13225;47.804;12.116;2022-09-06T13:36:06;4.60;;;2.05;;
25279;SDS011;13225;47.804;12.116;2022-09-06T13:38:39;4.20;;;1.88;;
25279;SDS011;13225;47.804;12.116;2022-09-06T13:46:22;2.78;;;1.80;;
25279;SDS011;13225;47.804;12.116;2022-09-06T13:48:48;4.65;;;2.05;;
25279;SDS011;13225;47.804;12.116;2022-09-06T13:51:14;5.53;;;1.80;;
25279;SDS011;13225;47.804;12.116;2022-09-06T13:53:42;3.53;;;1.63;;
25279;SDS011;13225;47.804;12.116;2022-09-06T13:56:07;5.50;;;1.90;;
25279;SDS011;13225;47.804;12.116;2022-09-06T13:58:33;7.47;;;2.20;;
25279;SDS011;13225;47.804;12.116;2022-09-06T14:01:00;6.70;;;1.88;;
25279;SDS011;13225;47.804;12.116;2022-09-06T14:03:26;5.13;;;1.92;;
25279;SDS011;13225;47.804;12.116;2022-09-06T14:05:55;3.30;;;1.65;;
25279;SDS011;13225;47.804;12.116;2022-09-06T14:08:21;5.80;;;2.30;;
25279;SDS011;13225;47.804;12.116;2022-09-06T14:10:47;6.28;;;2.15;;
25279;SDS011;13225;47.804;12.116;2022-09-06T14:13:14;5.82;;;2.03;;
25279;SDS011;13225;47.804;12.116;2022-09-06T14:15:40;3.88;;;1.85;;
25279;SDS011;13225;47.804;12.116;2022-09-06T14:18:07;5.72;;;2.17;;
25279;SDS011;13225;47.804;12.116;2022-09-06T14:20:33;6.13;;;1.90;;
25279;SDS011;13225;47.804;12.116;2022-09-06T14:22:59;4.05;;;1.80;;
25279;SDS011;13225;47.804;12.116;2022-09-06T14:25:24;3.90;;;2.10;;
25279;SDS011;13225;47.804;12.116;2022-09-06T14:27:50;4.00;;;2.00;;
25279;SDS011;13225;47.804;12.116;2022-09-06T14:30:16;4.90;;;1.90;;
25279;SDS011;13225;47.804;12.116;2022-09-06T14:32:41;4.20;;;1.88;;
25279;SDS011;13225;47.804;12.116;2022-09-06T14:35:07;5.13;;;2.40;;
25279;SDS011;13225;47.804;12.116;2022-09-06T14:37:33;6.50;;;2.20;;
25279;SDS011;13225;47.804;12.116;2022-09-06T14:39:59;4.63;;;2.53;;
25279;SDS011;13225;47.804;12.116;2022-09-06T14:42:25;3.70;;;1.90;;
25279;SDS011;13225;47.804;12.116;2022-09-06T14:44:52;5.45;;;2.17;;
25279;SDS011;13225;47.804;12.116;2022-09-06T14:47:18;4.15;;;2.00;;
25279;SDS011;13225;47.804;12.116;2022-09-06T14:49:43;3.75;;;1.70;;
25279;SDS011;13225;47.804;12.116;2022-09-06T14:52:09;8.95;;;2.60;;
25279;SDS011;13225;47.804;12.116;2022-09-06T14:54:35;4.63;;;2.38;;
25279;SDS011;13225;47.804;12.116;2022-09-06T14:57:00;5.85;;;2.10;;
25279;SDS011;13225;47.804;12.116;2022-09-06T14:59:26;3.90;;;2.17;;
25279;SDS011;13225;47.804;12.116;2022-09-06T15:01:52;7.95;;;2.25;;
25279;SDS011;13225;47.804;12.116;2022-09-06T15:04:18;4.38;;;2.33;;
25279;SDS011;13225;47.804;12.116;2022-09-06T15:06:44;5.15;;;2.20;;
25279;SDS011;13225;47.804;12.116;2022-09-06T15:09:11;7.95;;;2.67;;
25279;SDS011;13225;47.804;12.116;2022-09-06T15:11:42;7.68;;;2.47;;
25279;SDS011;13225;47.804;12.116;2022-09-06T15:16:39;3.45;;;2.03;;
25279;SDS011;13225;47.804;12.116;2022-09-06T15:19:05;6.28;;;2.20;;
25279;SDS011;13225;47.804;12.116;2022-09-06T15:21:34;4.28;;;2.08;;
25279;SDS011;13225;47.804;12.116;2022-09-06T15:24:00;4.95;;;2.25;;
25279;SDS011;13225;47.804;12.116;2022-09-06T15:26:26;4.80;;;2.20;;
25279;SDS011;13225;47.804;12.116;2022-09-06T15:28:52;5.78;;;2.28;;
25279;SDS011;13225;47.804;12.116;2022-09-06T15:31:18;7.30;;;2.10;;
25279;SDS011;13225;47.804;12.116;2022-09-06T15:33:45;4.28;;;2.13;;
25279;SDS011;13225;47.804;12.116;2022-09-06T15:36:19;5.00;;;2.08;;
25279;SDS011;13225;47.804;12.116;2022-09-06T15:38:47;4.68;;;2.25;;
25279;SDS011;13225;47.804;12.116;2022-09-06T15:41:24;6.38;;;2.40;;
25279;SDS011;13225;47.804;12.116;2022-09-06T15:43:54;3.78;;;2.28;;
25279;SDS011;13225;47.804;12.116;2022-09-06T15:49:23;6.63;;;2.10;;
25279;SDS011;13225;47.804;12.116;2022-09-06T15:52:05;6.88;;;2.53;;
25279;SDS011;13225;47.804;12.116;2022-09-06T15:54:34;5.88;;;2.20;;
25279;SDS011;13225;47.804;12.116;2022-09-06T15:57:18;5.80;;;2.60;;
25279;SDS011;13225;47.804;12.116;2022-09-06T15:59:44;5.57;;;2.47;;
25279;SDS011;13225;47.804;12.116;2022-09-06T16:02:17;5.72;;;2.33;;
25279;SDS011;13225;47.804;12.116;2022-09-06T16:04:44;6.75;;;2.72;;
25279;SDS011;13225;47.804;12.116;2022-09-06T16:07:10;4.93;;;2.05;;
25279;SDS011;13225;47.804;12.116;2022-09-06T16:09:36;4.75;;;2.30;;
25279;SDS011;13225;47.804;12.116;2022-09-06T16:12:05;4.82;;;2.55;;
25279;SDS011;13225;47.804;12.116;2022-09-06T16:14:30;5.78;;;3.47;;
25279;SDS011;13225;47.804;12.116;2022-09-06T16:16:56;5.68;;;2.47;;
25279;SDS011;13225;47.804;12.116;2022-09-06T16:19:22;6.70;;;2.30;;
25279;SDS011;13225;47.804;12.116;2022-09-06T16:21:49;4.88;;;2.50;;
25279;SDS011;13225;47.804;12.116;2022-09-06T16:24:15;7.65;;;2.35;;
25279;SDS011;13225;47.804;12.116;2022-09-06T16:26:43;7.35;;;2.28;;
25279;SDS011;13225;47.804;12.116;2022-09-06T16:29:10;5.25;;;2.60;;
25279;SDS011;13225;47.804;12.116;2022-09-06T16:31:38;7.28;;;2.50;;
25279;SDS011;13225;47.804;12.116;2022-09-06T16:34:03;8.40;;;2.20;;
25279;SDS011;13225;47.804;12.116;2022-09-06T16:36:31;6.63;;;2.30;;
25279;SDS011;13225;47.804;12.116;2022-09-06T16:38:57;9.35;;;2.75;;